Coxs Mills, WV (26342)

7:17 PM EDT on March 26, 2015 (GMT -0400)
Brooklyn Point | | Change Station
CLOSE
Current Station
Personal Weather Station
Location: Glenville, WV
Elevation: 732 ft
Nearby Weather Stations

Elev 732 ft 38.94 °N, 80.84 °W | Updated 2 minutes ago

Overcast
Overcast
48.7 °F
Feels Like 49 °F
N
1.7
Wind Variable Wind from West

Today
High -- | Low -- °F
--% Chance of Precip.
Yesterday
High -- | Low -- °F
Precip. -- in
7:17 AM 7:41 PM
Waxing Crescent, 46% visible
Pressure 29.79 in
Visibility 1.0 miles
Clouds Overcast 300 ft
Windchill 49 °F
Dew Point 45 °F
Humidity 87%
Rainfall 0.07 in
Snow Depth Not available.
UV 0 out of 12
Pollen 8.00 out of 12
Air Quality Not available.
Flu Activity Not available.
METAR KW22 262255Z AUTO 36006G11KT 1SM -DZ OVC003 07/07 A2979 RMK AO2

More Conditions Fewer Conditions

Pressure 29.79 in
Visibility 1.0 miles
Clouds Overcast 300 ft
Windchill 49 °F
Dew Point 45 °F
Humidity 87%
Rainfall 0.07 in
Snow Depth Not available.
UV 0 out of 12
Pollen 8.00 out of 12
Air Quality Not available.
Flu Activity Not available.
METAR KW22 262255Z AUTO 36006G11KT 1SM -DZ OVC003 07/07 A2979 RMK AO2

More Conditions Fewer Conditions

10-Day Weather Forecast

Almanac

Astronomy

Mar. 26, 2015 Rise Set
Actual Time
Civil Twilight
Nautical Twilight
Astronomical Twilight
Moon
Length of Visible Light
Length of Day
Tomorrow will be .
, % of the Moon is Illuminated

Today's Extremes

State Highs State Lows

Community

WunderPhotos

Upload Photos

1,808,633 photos uploaded!

WunderBlogs® & News

Nearby

Air Quality

  Air Quality AQ Index Pollutant
Not available.

Snow Depth

Station Depth Elevation

Earthquake Activity

City Distance Mag. Time & Date
Minimum magnitude displayed is 2.5.

Coastal Water Temperatures

Place Temperature

Stations

Nearby Weather Stations

Station Location Temp. Windchill Dew Point Humidity Wind Precip. Elev Updated Type